Eastport, Canada
Current Conditions -  °F | °C
As of 4:00 AM on Thursday 18 Dec 2014 (Local Time) from CYQX Reporting Station
Snow Showers Snow Showers  
Wind Chill: 20°   Ceiling: 1400
Heat Index: 28°   Visibility: 15mi
Dew Point: 25°   Wind: 9mph
Humidity: 86%   Direction: 140°SE
Pressure: 30.07"   Gusts: NA
Location:  48.65°N, 53.77°W
Report Text: CYQX 180700Z 14008KT 15SM -SHSN OVC014 M02/M04 A3007 RMK SC8 SLP193
Loading
Personal Weather Stations






























Interactive Weather Map New forecast layout! Learn more

10-Day Weather Forecast

Advertisements
Track Severe Weather on mobile